Time,TemperatureF,DewpointF,PressureIn,WindDirection,WindDirectionDegrees,WindSpeedMPH,WindSpeedGustMPH,Humidity,HourlyPrecipIn,Conditions,Clouds,dailyrainin,SoftwareType,DateUTC
2014-03-07 00:22:00,34.0,-99.9,-100.00,North,351,8.0,12.0,-999,-99.99,,,-99.99,,2014-03-07 07:22:00,
2014-03-07 00:30:00,34.0,-99.9,-100.00,West,272,15.0,25.0,-999,-99.99,,,-99.99,,2014-03-07 07:30:00,
2014-03-07 01:22:00,34.0,-99.9,-100.00,West,272,15.0,25.0,-999,-99.99,,,-99.99,,2014-03-07 08:22:00,
2014-03-07 01:30:00,34.0,-99.9,-100.00,WNW,300,21.0,32.0,-999,-99.99,,,-99.99,,2014-03-07 08:30:00,
2014-03-07 02:22:00,34.0,-99.9,-100.00,WNW,300,21.0,32.0,-999,-99.99,,,-99.99,,2014-03-07 09:22:00,
2014-03-07 02:30:00,32.0,-99.9,-100.00,WNW,297,12.0,18.0,-999,-99.99,,,-99.99,,2014-03-07 09:30:00,
2014-03-07 03:23:00,32.0,-99.9,-100.00,WNW,297,12.0,18.0,-999,-99.99,,,-99.99,,2014-03-07 10:23:00,
2014-03-07 03:30:00,32.0,-99.9,-100.00,WNW,293,20.0,25.0,-999,-99.99,,,-99.99,,2014-03-07 10:30:00,
2014-03-07 04:22:00,32.0,-99.9,-100.00,WNW,293,20.0,25.0,-999,-99.99,,,-99.99,,2014-03-07 11:22:00,
2014-03-07 04:30:00,32.0,-99.9,-100.00,NW,318,12.0,17.0,-999,-99.99,,,-99.99,,2014-03-07 11:30:00,
2014-03-07 05:22:00,32.0,-99.9,-100.00,NW,318,12.0,17.0,-999,-99.99,,,-99.99,,2014-03-07 12:22:00,
2014-03-07 05:30:00,32.0,-99.9,-100.00,WNW,283,20.0,24.0,-999,-99.99,,,-99.99,,2014-03-07 12:30:00,
2014-03-07 06:12:00,32.0,-99.9,-100.00,WNW,283,20.0,24.0,-999,-99.99,,,-99.99,,2014-03-07 13:12:00,
2014-03-07 06:22:00,32.0,-99.9,-100.00,WNW,283,20.0,24.0,-999,-99.99,,,-99.99,,2014-03-07 13:22:00,
2014-03-07 06:30:00,30.0,-99.9,-100.00,WNW,303,8.0,16.0,-999,-99.99,,,-99.99,,2014-03-07 13:30:00,
2014-03-07 07:12:00,30.0,-99.9,-100.00,WNW,303,8.0,16.0,-999,-99.99,,,-99.99,,2014-03-07 14:12:00,
2014-03-07 07:22:00,30.0,-99.9,-100.00,WNW,303,8.0,16.0,-999,-99.99,,,-99.99,,2014-03-07 14:22:00,
2014-03-07 07:30:00,30.0,-99.9,-100.00,NNE,25,8.0,10.0,-999,-99.99,,,-99.99,,2014-03-07 14:30:00,
2014-03-07 08:12:00,30.0,-99.9,-100.00,NNE,25,8.0,10.0,-999,-99.99,,,-99.99,,2014-03-07 15:12:00,
2014-03-07 08:22:00,30.0,-99.9,-100.00,NNE,25,8.0,10.0,-999,-99.99,,,-99.99,,2014-03-07 15:22:00,
2014-03-07 08:30:00,30.0,-99.9,-100.00,NNW,340,10.0,11.0,-999,-99.99,,,-99.99,,2014-03-07 15:30:00,
2014-03-07 09:13:00,30.0,-99.9,-100.00,NNW,340,10.0,11.0,-999,-99.99,,,-99.99,,2014-03-07 16:13:00,
2014-03-07 09:24:00,30.0,-99.9,-100.00,NNW,340,10.0,11.0,-999,-99.99,,,-99.99,,2014-03-07 16:24:00,
2014-03-07 10:12:00,32.0,-99.9,-100.00,North,2,10.0,16.0,-999,-99.99,,,-99.99,,2014-03-07 17:12:00,
2014-03-07 10:23:00,32.0,-99.9,-100.00,North,2,10.0,16.0,-999,-99.99,,,-99.99,,2014-03-07 17:23:00,
2014-03-07 11:12:00,28.0,-99.9,-100.00,NE,45,14.0,19.0,-999,-99.99,,,-99.99,,2014-03-07 18:12:00,
2014-03-07 11:22:00,28.0,-99.9,-100.00,NE,45,14.0,19.0,-999,-99.99,,,-99.99,,2014-03-07 18:22:00,
2014-03-07 12:12:00,27.0,-99.9,-100.00,NE,46,21.0,25.0,-999,-99.99,,,-99.99,,2014-03-07 19:12:00,
2014-03-07 12:22:00,27.0,-99.9,-100.00,NE,46,21.0,25.0,-999,-99.99,,,-99.99,,2014-03-07 19:22:00,
2014-03-07 13:12:00,28.0,-99.9,-100.00,ENE,72,13.0,14.0,-999,-99.99,,,-99.99,,2014-03-07 20:12:00,
2014-03-07 13:22:00,28.0,-99.9,-100.00,ENE,72,13.0,14.0,-999,-99.99,,,-99.99,,2014-03-07 20:22:00,
2014-03-07 14:12:00,27.0,-99.9,-100.00,ENE,75,7.0,9.0,-999,-99.99,,,-99.99,,2014-03-07 21:12:00,
2014-03-07 14:22:00,27.0,-99.9,-100.00,ENE,75,7.0,9.0,-999,-99.99,,,-99.99,,2014-03-07 21:22:00,
2014-03-07 15:12:00,27.0,-99.9,-100.00,NNE,32,11.0,13.0,-999,-99.99,,,-99.99,,2014-03-07 22:12:00,
2014-03-07 15:23:00,27.0,-99.9,-100.00,NNE,32,11.0,13.0,-999,-99.99,,,-99.99,,2014-03-07 22:23:00,
2014-03-07 16:13:00,27.0,-99.9,-100.00,NE,51,10.0,11.0,-999,-99.99,,,-99.99,,2014-03-07 23:13:00,
2014-03-07 16:22:00,27.0,-99.9,-100.00,NE,51,10.0,11.0,-999,-99.99,,,-99.99,,2014-03-07 23:22:00,
2014-03-07 17:12:00,27.0,-99.9,-100.00,NNE,30,6.0,8.0,-999,-99.99,,,-99.99,,2014-03-08 00:12:00,
2014-03-07 17:22:00,27.0,-99.9,-100.00,NNE,30,6.0,8.0,-999,-99.99,,,-99.99,,2014-03-08 00:22:00,
2014-03-07 18:12:00,25.0,-99.9,-100.00,North,349,7.0,10.0,-999,-99.99,,,-99.99,,2014-03-08 01:12:00,
2014-03-07 18:22:00,25.0,-99.9,-100.00,North,349,7.0,10.0,-999,-99.99,,,-99.99,,2014-03-08 01:22:00,
2014-03-07 19:11:00,25.0,-99.9,-100.00,North,354,5.0,6.0,-999,-99.99,,,-99.99,,2014-03-08 02:11:00,
2014-03-07 19:22:00,25.0,-99.9,-100.00,North,354,5.0,6.0,-999,-99.99,,,-99.99,,2014-03-08 02:22:00,
2014-03-07 20:11:00,23.0,-99.9,-100.00,WNW,298,5.0,6.0,-999,-99.99,,,-99.99,,2014-03-08 03:11:00,
2014-03-07 20:22:00,23.0,-99.9,-100.00,WNW,298,5.0,6.0,-999,-99.99,,,-99.99,,2014-03-08 03:22:00,
2014-03-07 21:13:00,23.0,-99.9,-100.00,NW,309,10.0,14.0,-999,-99.99,,,-99.99,,2014-03-08 04:13:00,
2014-03-07 21:23:00,23.0,-99.9,-100.00,NW,309,10.0,14.0,-999,-99.99,,,-99.99,,2014-03-08 04:23:00,
2014-03-07 22:12:00,23.0,-99.9,-100.00,WNW,299,5.0,14.0,-999,-99.99,,,-99.99,,2014-03-08 05:12:00,
2014-03-07 22:23:00,23.0,-99.9,-100.00,WNW,299,5.0,14.0,-999,-99.99,,,-99.99,,2014-03-08 05:23:00,
2014-03-07 23:12:00,23.0,-99.9,-100.00,NW,319,11.0,11.0,-999,-99.99,,,-99.99,,2014-03-08 06:12:00,
2014-03-07 23:20:00,21.0,-99.9,-100.00,NW,311,5.0,8.0,-999,-99.99,,,-99.99,,2014-03-08 06:20:00,
2014-03-07 23:22:00,23.0,-99.9,-100.00,NW,319,11.0,11.0,-999,-99.99,,,-99.99,,2014-03-08 06:22:00,